createdAt,value
2022-08-29T00:00:51.836Z,7.29
2022-08-29T00:03:21.067Z,7.33
2022-08-29T00:05:50.358Z,7.39
2022-08-29T00:08:20.050Z,7.45
2022-08-29T00:10:49.283Z,7.47
2022-08-29T00:13:18.149Z,7.53
2022-08-29T00:15:47.347Z,7.56
2022-08-29T00:18:18.104Z,7.63
2022-08-29T00:20:48.753Z,7.70
2022-08-29T00:23:17.695Z,7.73
2022-08-29T00:25:46.805Z,7.67
2022-08-29T00:28:16.236Z,7.67
2022-08-29T00:30:45.589Z,7.72
2022-08-29T00:33:14.497Z,7.75
2022-08-29T00:35:45.764Z,7.71
2022-08-29T00:38:18.215Z,7.71
2022-08-29T00:40:52.189Z,7.69
2022-08-29T00:43:25.277Z,7.65
2022-08-29T00:46:01.912Z,7.65
2022-08-29T00:48:30.979Z,7.67
2022-08-29T00:51:07.675Z,7.64
2022-08-29T00:53:41.515Z,7.67
2022-08-29T00:56:13.569Z,7.73
2022-08-29T00:59:27.671Z,7.75
2022-08-29T01:02:06.155Z,7.77
2022-08-29T01:04:43.815Z,7.82
2022-08-29T01:07:16.644Z,7.84
2022-08-29T01:09:47.821Z,7.86
2022-08-29T01:12:17.695Z,7.82
2022-08-29T01:14:50.462Z,7.87
2022-08-29T01:17:34.074Z,8.00
2022-08-29T01:20:20.260Z,8.11
2022-08-29T01:23:01.999Z,8.19
2022-08-29T01:25:35.690Z,8.28
2022-08-29T01:28:24.750Z,8.40
2022-08-29T01:31:11.298Z,8.41
2022-08-29T01:33:50.286Z,8.40
2022-08-29T01:36:28.797Z,8.41
2022-08-29T01:38:57.685Z,8.43
2022-08-29T01:41:27.537Z,8.55
2022-08-29T01:43:57.376Z,8.68
2022-08-29T01:46:35.316Z,8.74
2022-08-29T01:49:06.493Z,8.86
2022-08-29T01:51:36.765Z,8.91
2022-08-29T01:54:07.965Z,8.96
2022-08-29T01:56:41.405Z,8.99
2022-08-29T01:59:12.804Z,9.08
2022-08-29T02:01:48.183Z,9.09
2022-08-29T02:04:17.934Z,9.03
2022-08-29T02:06:46.731Z,8.99
2022-08-29T02:09:18.611Z,9.05
2022-08-29T02:11:49.050Z,9.06
2022-08-29T02:14:19.538Z,9.08
2022-08-29T02:16:49.329Z,9.06
2022-08-29T02:19:19.795Z,9.04
2022-08-29T02:21:48.764Z,9.00
2022-08-29T02:24:26.414Z,8.90
2022-08-29T02:26:56.747Z,8.84
2022-08-29T02:29:31.033Z,8.85
2022-08-29T02:32:13.249Z,8.87
2022-08-29T02:34:47.858Z,8.99
2022-08-29T02:37:18.896Z,9.12
2022-08-29T02:39:47.595Z,9.13
2022-08-29T02:42:16.357Z,9.18
2022-08-29T02:44:45.448Z,9.13
2022-08-29T02:47:15.071Z,8.99
2022-08-29T02:49:44.372Z,8.88
2022-08-29T02:52:13.706Z,8.83
2022-08-29T02:54:42.612Z,8.78
2022-08-29T02:57:11.511Z,8.74
2022-08-29T02:59:40.374Z,8.80
2022-08-29T03:02:09.585Z,8.80
2022-08-29T03:04:38.856Z,8.80
2022-08-29T03:07:07.717Z,8.71
2022-08-29T03:09:36.590Z,8.59
2022-08-29T03:12:06.103Z,8.54
2022-08-29T03:14:34.970Z,8.45
2022-08-29T03:17:03.844Z,8.38
2022-08-29T03:19:37.415Z,8.36
2022-08-29T03:22:06.621Z,8.32
2022-08-29T03:24:37.301Z,8.29
2022-08-29T03:27:06.363Z,8.26
2022-08-29T03:29:35.357Z,8.27
2022-08-29T03:32:05.544Z,8.27
2022-08-29T03:34:34.658Z,8.28
2022-08-29T03:37:03.573Z,8.21
2022-08-29T03:39:32.760Z,8.19
2022-08-29T03:42:01.612Z,8.23
2022-08-29T03:44:33.719Z,8.32
2022-08-29T03:47:02.893Z,8.40
2022-08-29T03:49:32.031Z,8.52
2022-08-29T03:52:00.935Z,8.59
2022-08-29T03:54:29.709Z,8.60
2022-08-29T03:56:58.577Z,8.68
2022-08-29T03:59:27.512Z,8.80
2022-08-29T04:01:58.761Z,8.94
2022-08-29T04:04:46.208Z,9.05
2022-08-29T04:07:15.450Z,9.09
2022-08-29T04:09:44.360Z,9.06
2022-08-29T04:12:14.199Z,9.14
2022-08-29T04:14:43.480Z,9.14
2022-08-29T04:17:12.958Z,9.16
2022-08-29T04:19:42.040Z,9.19
2022-08-29T04:22:14.358Z,9.19
2022-08-29T04:24:43.340Z,9.23
2022-08-29T04:27:12.158Z,9.22
2022-08-29T04:29:40.985Z,9.22
2022-08-29T04:32:09.846Z,9.18
2022-08-29T04:34:38.720Z,9.14
2022-08-29T04:37:07.486Z,9.17
2022-08-29T04:39:36.437Z,9.20
2022-08-29T04:42:05.464Z,9.21
2022-08-29T04:44:35.218Z,9.16
2022-08-29T04:47:04.076Z,9.11
2022-08-29T04:49:32.898Z,9.01
2022-08-29T04:52:01.713Z,8.95
2022-08-29T04:54:30.737Z,8.98
2022-08-29T04:57:06.055Z,9.02
2022-08-29T04:59:35.339Z,9.11
2022-08-29T05:02:05.073Z,9.12
2022-08-29T05:04:34.082Z,9.12
2022-08-29T05:07:02.982Z,9.18
2022-08-29T05:09:31.865Z,9.18
2022-08-29T05:12:00.695Z,9.33
2022-08-29T05:14:29.935Z,9.42
2022-08-29T05:16:59.816Z,9.44
2022-08-29T05:19:28.559Z,9.46
2022-08-29T05:22:03.493Z,9.57
2022-08-29T05:24:32.520Z,9.64
2022-08-29T05:27:02.030Z,9.66
2022-08-29T05:29:31.053Z,9.71
2022-08-29T05:31:59.941Z,9.70
2022-08-29T05:34:34.867Z,9.72
2022-08-29T05:37:07.618Z,9.80
2022-08-29T05:39:37.771Z,9.81
2022-08-29T05:42:08.376Z,9.76
2022-08-29T05:44:38.060Z,9.76
2022-08-29T05:47:09.226Z,9.76
2022-08-29T05:49:39.650Z,9.80
2022-08-29T05:52:08.846Z,9.86
2022-08-29T05:54:40.477Z,9.94
2022-08-29T05:57:15.343Z,10.07
2022-08-29T05:59:49.068Z,10.10
2022-08-29T06:02:19.655Z,10.13
2022-08-29T06:04:48.985Z,10.12
2022-08-29T06:07:18.124Z,10.06
2022-08-29T06:09:47.315Z,10.03
2022-08-29T06:12:16.590Z,10.14
2022-08-29T06:14:50.068Z,10.14
2022-08-29T06:17:21.415Z,10.25
2022-08-29T06:19:52.041Z,10.46
2022-08-29T06:22:22.998Z,10.49
2022-08-29T06:24:57.532Z,10.44
2022-08-29T06:27:27.269Z,10.37
2022-08-29T06:29:58.174Z,10.22
2022-08-29T06:32:32.311Z,10.19
2022-08-29T06:35:01.518Z,10.19
2022-08-29T06:37:31.549Z,10.23
2022-08-29T06:40:00.418Z,10.37
2022-08-29T06:42:29.547Z,10.53
2022-08-29T06:44:58.638Z,10.67
2022-08-29T06:47:27.572Z,10.81
2022-08-29T06:49:56.541Z,10.77
2022-08-29T06:52:25.437Z,10.81
2022-08-29T06:54:54.922Z,10.80
2022-08-29T06:57:23.701Z,10.79
2022-08-29T06:59:52.661Z,10.76
2022-08-29T07:02:22.318Z,10.63
2022-08-29T07:04:51.481Z,10.57
2022-08-29T07:07:21.342Z,10.51
2022-08-29T07:09:50.598Z,10.44
2022-08-29T07:12:19.397Z,10.46
2022-08-29T07:14:48.211Z,10.44
2022-08-29T07:17:26.171Z,10.42
2022-08-29T07:19:55.456Z,10.45
2022-08-29T07:22:24.457Z,10.52
2022-08-29T07:24:54.807Z,10.52
2022-08-29T07:27:23.827Z,10.52
2022-08-29T07:29:52.620Z,10.52
2022-08-29T07:32:25.282Z,10.54
2022-08-29T07:34:56.412Z,10.56
2022-08-29T07:37:25.777Z,10.55
2022-08-29T07:39:54.911Z,10.57
2022-08-29T07:42:24.235Z,10.57
2022-08-29T07:44:53.235Z,10.53
2022-08-29T07:47:22.363Z,10.51
2022-08-29T07:49:51.175Z,10.48
2022-08-29T07:52:20.209Z,10.49
2022-08-29T07:54:49.786Z,10.49
2022-08-29T07:57:19.565Z,10.44
2022-08-29T07:59:48.712Z,10.39
2022-08-29T08:02:18.382Z,10.39
2022-08-29T08:04:47.649Z,10.33
2022-08-29T08:07:23.044Z,10.26
2022-08-29T08:09:59.871Z,10.20
2022-08-29T08:12:29.994Z,10.08
2022-08-29T08:14:59.193Z,9.98
2022-08-29T08:17:28.011Z,9.92
2022-08-29T08:19:56.946Z,9.92
2022-08-29T08:22:26.118Z,9.94
2022-08-29T08:24:55.119Z,9.99
2022-08-29T08:27:24.218Z,10.00
2022-08-29T08:29:53.153Z,10.03
2022-08-29T08:32:32.346Z,10.07
2022-08-29T08:35:02.407Z,10.14
2022-08-29T08:37:31.387Z,10.17
2022-08-29T08:40:00.538Z,10.26
2022-08-29T08:42:43.103Z,10.24
2022-08-29T08:45:15.496Z,10.22
2022-08-29T08:47:54.133Z,10.15
2022-08-29T08:50:38.483Z,10.09
2022-08-29T08:53:11.744Z,10.07
2022-08-29T08:55:47.324Z,10.00
2022-08-29T08:58:37.531Z,9.94
2022-08-29T09:01:28.614Z,9.94
2022-08-29T09:04:23.849Z,9.91
2022-08-29T09:07:08.085Z,9.87
2022-08-29T09:10:03.631Z,9.81
2022-08-29T09:12:53.038Z,9.80
2022-08-29T09:15:25.635Z,9.81
2022-08-29T09:18:01.420Z,9.83
2022-08-29T09:20:34.849Z,9.85
2022-08-29T09:23:08.679Z,9.86
2022-08-29T09:25:37.765Z,9.90
2022-08-29T09:28:09.065Z,9.94
2022-08-29T09:30:39.844Z,9.96
2022-08-29T09:33:13.326Z,9.94
2022-08-29T09:35:44.852Z,10.00
2022-08-29T09:38:22.183Z,10.02
2022-08-29T09:40:53.353Z,10.06
2022-08-29T09:43:45.220Z,10.08
2022-08-29T09:46:26.280Z,10.12
2022-08-29T09:49:14.488Z,10.18
2022-08-29T09:51:48.706Z,10.22
2022-08-29T09:54:29.327Z,10.28
2022-08-29T09:57:26.921Z,10.34
2022-08-29T10:00:18.677Z,10.36
2022-08-29T10:02:54.847Z,10.38
2022-08-29T10:05:45.408Z,10.42
2022-08-29T10:08:37.699Z,10.46
2022-08-29T10:11:25.955Z,10.49
2022-08-29T10:13:56.721Z,10.55
2022-08-29T10:16:28.644Z,10.58
2022-08-29T10:18:58.509Z,10.62
2022-08-29T10:21:36.991Z,10.65
2022-08-29T10:24:33.588Z,10.68
2022-08-29T10:27:21.580Z,10.75
2022-08-29T10:30:06.771Z,10.74
2022-08-29T10:32:49.581Z,10.75
2022-08-29T10:35:33.916Z,10.76
2022-08-29T10:38:31.159Z,10.79
2022-08-29T10:41:11.294Z,10.85
2022-08-29T10:43:59.525Z,10.85
2022-08-29T10:46:49.194Z,10.90
2022-08-29T10:49:28.741Z,10.90
2022-08-29T10:52:19.445Z,10.83
2022-08-29T10:55:00.387Z,10.95
2022-08-29T10:57:51.542Z,10.90
2022-08-29T11:00:30.419Z,10.80
2022-08-29T11:03:13.894Z,10.75
2022-08-29T11:05:52.339Z,10.69
2022-08-29T11:08:30.276Z,10.60
2022-08-29T11:10:59.159Z,10.58
2022-08-29T11:13:39.129Z,10.56
2022-08-29T11:16:16.402Z,10.55
2022-08-29T11:18:52.102Z,10.62
2022-08-29T11:21:35.306Z,10.67
2022-08-29T11:24:06.130Z,10.72
2022-08-29T11:26:41.807Z,10.81
2022-08-29T11:29:22.642Z,10.88
2022-08-29T11:31:58.699Z,10.95
2022-08-29T11:35:08.246Z,11.04
2022-08-29T11:37:42.748Z,11.11
2022-08-29T11:43:27.722Z,11.21
2022-08-29T11:46:03.412Z,11.23
2022-08-29T11:48:38.015Z,11.27
2022-08-29T11:51:38.049Z,11.27
2022-08-29T11:54:25.310Z,11.30
2022-08-29T11:57:02.853Z,11.33
2022-08-29T11:59:49.983Z,11.34
2022-08-29T12:02:31.398Z,11.38
2022-08-29T12:05:29.217Z,11.41
2022-08-29T12:08:36.208Z,11.45
2022-08-29T12:11:07.407Z,11.46
2022-08-29T12:13:51.310Z,11.46
2022-08-29T12:16:25.729Z,11.48
2022-08-29T12:18:57.190Z,11.51
2022-08-29T12:21:37.957Z,11.55
2022-08-29T12:24:27.055Z,11.55
2022-08-29T12:26:56.141Z,11.54
2022-08-29T12:29:44.616Z,11.46
2022-08-29T12:32:41.114Z,11.36
2022-08-29T12:36:06.219Z,11.20
2022-08-29T12:39:01.200Z,11.05
2022-08-29T12:41:39.146Z,11.04
2022-08-29T12:44:14.132Z,10.98
2022-08-29T12:46:46.566Z,10.93
2022-08-29T12:49:24.434Z,10.89
2022-08-29T12:51:59.991Z,10.88
2022-08-29T12:54:33.192Z,10.85
2022-08-29T12:57:03.675Z,10.83
2022-08-29T12:59:34.596Z,10.80
2022-08-29T13:02:04.018Z,10.77
2022-08-29T13:04:34.375Z,10.73
2022-08-29T13:07:17.687Z,10.63
2022-08-29T13:09:56.137Z,10.69
2022-08-29T13:12:31.253Z,10.63
2022-08-29T13:15:08.053Z,10.58
2022-08-29T13:17:42.603Z,10.56
2022-08-29T13:20:43.289Z,10.54
2022-08-29T13:23:21.428Z,10.52
2022-08-29T13:25:56.552Z,10.49
2022-08-29T13:28:47.230Z,10.49
2022-08-29T13:31:16.582Z,10.51
2022-08-29T13:33:51.438Z,10.49
2022-08-29T13:36:32.603Z,10.49
2022-08-29T13:39:25.556Z,10.48
2022-08-29T13:42:03.698Z,10.46
2022-08-29T13:44:54.562Z,10.43
2022-08-29T13:47:30.016Z,10.42
2022-08-29T13:50:06.698Z,10.43
2022-08-29T13:52:35.838Z,10.49
2022-08-29T13:55:07.817Z,10.46
2022-08-29T13:57:36.834Z,10.46
2022-08-29T14:00:09.281Z,10.39
2022-08-29T14:02:44.951Z,10.46
2022-08-29T14:05:39.393Z,10.46
2022-08-29T14:08:10.773Z,10.46
2022-08-29T14:10:49.179Z,10.45
2022-08-29T14:13:18.626Z,10.43
2022-08-29T14:15:47.883Z,10.46
2022-08-29T14:18:16.817Z,10.41
2022-08-29T14:20:46.049Z,10.40
2022-08-29T14:23:14.982Z,10.43
2022-08-29T14:25:44.030Z,10.43
2022-08-29T14:28:14.024Z,10.46
2022-08-29T14:30:51.625Z,10.51
2022-08-29T14:33:24.173Z,10.50
2022-08-29T14:35:54.411Z,10.50
2022-08-29T14:38:23.630Z,10.51
2022-08-29T14:40:52.808Z,10.59
2022-08-29T14:43:21.835Z,10.66
2022-08-29T14:45:52.038Z,10.69
2022-08-29T14:48:21.030Z,10.68
2022-08-29T14:50:50.028Z,10.71
2022-08-29T14:53:18.937Z,10.75
2022-08-29T14:55:48.129Z,10.78
2022-08-29T14:58:17.556Z,10.75
2022-08-29T15:00:52.165Z,10.37
2022-08-29T15:03:26.009Z,9.78
2022-08-29T15:05:55.033Z,9.36
2022-08-29T15:08:23.997Z,9.04
2022-08-29T15:10:53.348Z,8.84
2022-08-29T15:13:22.597Z,8.70
2022-08-29T15:15:51.830Z,8.64
2022-08-29T15:18:59.518Z,8.59
2022-08-29T15:21:12.678Z,8.55
2022-08-29T15:23:41.772Z,8.55
2022-08-29T15:26:10.758Z,8.41
2022-08-29T15:28:40.514Z,8.26
2022-08-29T15:31:09.522Z,8.10
2022-08-29T15:33:38.866Z,7.95
2022-08-29T15:36:08.520Z,7.78
2022-08-29T15:38:37.344Z,7.63
2022-08-29T15:41:06.284Z,7.44
2022-08-29T15:43:35.272Z,7.30
2022-08-29T15:46:04.257Z,7.23
2022-08-29T15:48:33.894Z,7.07
2022-08-29T15:51:02.726Z,6.94
2022-08-29T15:53:31.868Z,6.89
2022-08-29T15:56:00.896Z,6.80
2022-08-29T15:58:29.775Z,6.78
2022-08-29T16:01:00.054Z,6.79
2022-08-29T16:03:29.345Z,6.76
2022-08-29T16:05:59.485Z,6.73
2022-08-29T16:08:29.773Z,6.67
2022-08-29T16:10:58.786Z,6.50
2022-08-29T16:13:27.658Z,6.36
2022-08-29T16:15:56.776Z,6.24
2022-08-29T16:18:26.192Z,6.14
2022-08-29T16:20:56.756Z,6.05
2022-08-29T16:23:25.805Z,6.01
2022-08-29T16:25:54.659Z,6.00
2022-08-29T16:28:23.676Z,5.97
2022-08-29T16:30:53.941Z,5.87
2022-08-29T16:33:22.903Z,5.75
2022-08-29T16:35:52.317Z,5.62
2022-08-29T16:38:21.214Z,5.46
2022-08-29T16:40:50.887Z,5.38
2022-08-29T16:43:20.027Z,5.28
2022-08-29T16:45:49.047Z,5.16
2022-08-29T16:48:19.310Z,5.06
2022-08-29T16:50:48.590Z,4.97
2022-08-29T16:53:17.363Z,4.91
2022-08-29T16:55:46.334Z,4.84
2022-08-29T16:58:33.621Z,4.75
2022-08-29T17:01:03.938Z,4.67
2022-08-29T17:03:32.894Z,4.59
2022-08-29T17:06:02.116Z,4.48
2022-08-29T17:08:30.745Z,4.34
2022-08-29T17:10:59.727Z,4.27
2022-08-29T17:13:28.508Z,4.23
2022-08-29T17:16:05.184Z,4.22
2022-08-29T17:18:34.447Z,4.32
2022-08-29T17:21:04.324Z,4.42
2022-08-29T17:23:36.305Z,4.50
2022-08-29T17:26:08.207Z,4.52
2022-08-29T17:28:39.600Z,4.58
2022-08-29T17:31:08.922Z,4.61
2022-08-29T17:33:38.506Z,4.67
2022-08-29T17:36:08.198Z,4.70
2022-08-29T17:38:40.264Z,4.57
2022-08-29T17:41:15.224Z,4.37
2022-08-29T17:43:46.723Z,4.16
2022-08-29T17:46:22.381Z,3.99
2022-08-29T17:48:51.248Z,3.82
2022-08-29T17:51:20.107Z,3.73
2022-08-29T17:53:52.422Z,3.66
2022-08-29T17:56:39.409Z,3.65
2022-08-29T17:59:15.036Z,3.61
2022-08-29T18:01:44.894Z,3.62
2022-08-29T18:04:14.522Z,3.58
2022-08-29T18:06:43.447Z,3.56
2022-08-29T18:09:12.946Z,3.53
2022-08-29T18:11:44.054Z,3.44
2022-08-29T18:14:13.553Z,3.40
2022-08-29T18:16:42.404Z,3.30
2022-08-29T18:19:13.820Z,3.21
2022-08-29T18:21:44.995Z,3.12
2022-08-29T18:24:17.198Z,3.03
2022-08-29T18:26:47.621Z,2.95
2022-08-29T18:29:17.196Z,2.87
2022-08-29T18:31:46.078Z,2.79
2022-08-29T18:34:16.109Z,2.77
2022-08-29T18:36:46.946Z,2.69
2022-08-29T18:39:16.962Z,2.69
2022-08-29T18:41:45.959Z,2.66
2022-08-29T18:44:14.800Z,2.67
2022-08-29T18:46:48.313Z,2.73
2022-08-29T18:49:20.158Z,2.73
2022-08-29T18:51:48.956Z,2.72
2022-08-29T18:54:19.478Z,2.67
2022-08-29T18:56:48.677Z,2.66
2022-08-29T18:59:17.463Z,2.67
2022-08-29T19:01:46.960Z,2.59
2022-08-29T19:04:15.972Z,2.59
2022-08-29T19:06:45.020Z,2.54
2022-08-29T19:09:13.790Z,2.56
2022-08-29T19:11:42.612Z,2.51
2022-08-29T19:14:11.550Z,2.50
2022-08-29T19:16:40.910Z,2.44
2022-08-29T19:19:13.440Z,2.44
2022-08-29T19:21:43.057Z,2.40
2022-08-29T19:24:11.956Z,2.41
2022-08-29T19:26:40.784Z,2.38
2022-08-29T19:29:13.230Z,2.35
2022-08-29T19:31:45.338Z,2.41
2022-08-29T19:34:14.333Z,2.45
2022-08-29T19:36:47.058Z,2.45
2022-08-29T19:39:16.491Z,2.43
2022-08-29T19:41:45.250Z,2.36
2022-08-29T19:44:14.408Z,2.41
2022-08-29T19:46:49.110Z,2.47
2022-08-29T19:49:18.618Z,2.46
2022-08-29T19:51:48.158Z,2.43
2022-08-29T19:54:17.152Z,2.45
2022-08-29T19:56:46.802Z,2.56
2022-08-29T19:59:16.530Z,2.68
2022-08-29T20:01:46.654Z,2.72
2022-08-29T20:04:16.046Z,2.78
2022-08-29T20:06:46.808Z,2.82
2022-08-29T20:09:17.002Z,2.90
2022-08-29T20:11:45.893Z,2.98
2022-08-29T20:14:14.759Z,2.98
2022-08-29T20:16:45.562Z,2.94
2022-08-29T20:19:14.668Z,2.96
2022-08-29T20:21:45.416Z,2.97
2022-08-29T20:24:15.710Z,2.91
2022-08-29T20:26:48.427Z,2.86
2022-08-29T20:29:17.884Z,2.82
2022-08-29T20:31:47.027Z,2.80
2022-08-29T20:34:16.658Z,2.76
2022-08-29T20:37:04.027Z,2.61
2022-08-29T20:39:32.885Z,2.53
2022-08-29T20:42:02.737Z,2.50
2022-08-29T20:44:34.317Z,2.48
2022-08-29T20:47:04.615Z,2.53
2022-08-29T20:49:33.768Z,2.54
2022-08-29T20:52:05.802Z,2.42
2022-08-29T20:54:34.954Z,2.34
2022-08-29T20:57:03.685Z,2.25
2022-08-29T20:59:34.469Z,2.19
2022-08-29T21:02:05.721Z,2.10
2022-08-29T21:04:53.985Z,2.00
2022-08-29T21:07:22.911Z,1.93
2022-08-29T21:09:52.465Z,1.93
2022-08-29T21:12:21.995Z,1.92
2022-08-29T21:14:56.570Z,1.89
2022-08-29T21:17:25.299Z,1.91
2022-08-29T21:19:54.146Z,1.98
2022-08-29T21:22:25.059Z,2.06
2022-08-29T21:24:56.301Z,2.06
2022-08-29T21:27:26.595Z,2.09
2022-08-29T21:29:58.585Z,2.03
2022-08-29T21:32:27.456Z,2.06
2022-08-29T21:34:56.633Z,2.12
2022-08-29T21:37:26.024Z,2.13
2022-08-29T21:39:55.660Z,2.15
2022-08-29T21:42:24.465Z,2.15
2022-08-29T21:44:56.263Z,2.22
2022-08-29T21:47:25.049Z,2.24
2022-08-29T21:49:54.175Z,2.24
2022-08-29T21:52:23.501Z,2.24
2022-08-29T21:54:54.072Z,2.16
2022-08-29T21:57:41.639Z,2.01
2022-08-29T22:00:11.798Z,1.81
2022-08-29T22:02:40.903Z,1.76
2022-08-29T22:05:09.826Z,1.80
2022-08-29T22:07:42.966Z,1.83
2022-08-29T22:10:22.174Z,1.83
2022-08-29T22:12:51.365Z,1.83
2022-08-29T22:15:39.306Z,1.85
2022-08-29T22:18:09.276Z,1.87
2022-08-29T22:20:38.959Z,1.90
2022-08-29T22:23:08.660Z,1.85
2022-08-29T22:25:37.534Z,1.77
2022-08-29T22:28:07.061Z,1.76
2022-08-29T22:30:36.103Z,1.68
2022-08-29T22:33:06.474Z,1.62
2022-08-29T22:35:36.883Z,1.56
2022-08-29T22:38:05.676Z,1.51
2022-08-29T22:40:34.612Z,1.55
2022-08-29T22:43:03.825Z,1.60
2022-08-29T22:45:33.034Z,1.62
2022-08-29T22:48:01.806Z,1.65
2022-08-29T22:50:30.912Z,1.76
2022-08-29T22:53:02.496Z,1.86
2022-08-29T22:58:01.002Z,2.05
2022-08-29T23:00:30.247Z,2.09
2022-08-29T23:02:59.285Z,2.18
2022-08-29T23:05:28.290Z,2.25
2022-08-29T23:07:57.722Z,2.29
2022-08-29T23:10:26.533Z,2.35
2022-08-29T23:12:55.366Z,2.43
2022-08-29T23:15:24.239Z,2.50
2022-08-29T23:17:53.042Z,2.54
2022-08-29T23:20:21.934Z,2.57
2022-08-29T23:22:50.779Z,2.65
2022-08-29T23:25:19.820Z,2.64
2022-08-29T23:27:48.651Z,2.64
2022-08-29T23:30:17.564Z,2.69
2022-08-29T23:32:46.334Z,2.79
2022-08-29T23:35:15.274Z,2.82
2022-08-29T23:37:44.026Z,2.92
2022-08-29T23:40:12.996Z,2.99
2022-08-29T23:42:41.982Z,3.05
2022-08-29T23:45:11.510Z,3.13
2022-08-29T23:47:40.390Z,3.21
2022-08-29T23:50:09.861Z,3.26
2022-08-29T23:52:38.698Z,3.32
2022-08-29T23:55:08.282Z,3.40
2022-08-29T23:57:37.175Z,3.47
